createdAt,value
2018-01-11T00:00:44.099Z,16.90
2018-01-11T00:01:44.120Z,17.10
2018-01-11T00:02:44.072Z,15.50
2018-01-11T00:03:44.061Z,14.80
2018-01-11T00:04:44.062Z,16.30
2018-01-11T00:05:44.038Z,16.90
2018-01-11T00:06:44.029Z,13.90
2018-01-11T00:07:44.051Z,13.20
2018-01-11T00:08:44.023Z,16.00
2018-01-11T00:09:44.010Z,15.80
2018-01-11T00:10:43.993Z,15.00
2018-01-11T00:11:43.983Z,14.20
2018-01-11T00:12:43.967Z,16.60
2018-01-11T00:13:43.957Z,17.10
2018-01-11T00:14:43.950Z,14.20
2018-01-11T00:15:43.941Z,16.60
2018-01-11T00:16:43.935Z,14.60
2018-01-11T00:17:43.920Z,15.30
2018-01-11T00:18:43.913Z,15.90
2018-01-11T00:19:43.898Z,15.20
2018-01-11T00:20:43.891Z,15.50
2018-01-11T00:21:43.893Z,16.40
2018-01-11T00:22:43.871Z,15.60
2018-01-11T00:23:43.860Z,14.00
2018-01-11T00:24:43.854Z,15.30
2018-01-11T00:25:43.843Z,14.00
2018-01-11T00:26:43.832Z,16.00
2018-01-11T00:27:43.832Z,13.60
2018-01-11T00:28:43.817Z,15.50
2018-01-11T00:29:43.796Z,16.00
2018-01-11T00:30:43.790Z,14.60
2018-01-11T00:31:43.776Z,14.70
2018-01-11T00:32:43.773Z,15.50
2018-01-11T00:33:43.767Z,15.40
2018-01-11T00:34:43.757Z,14.40
2018-01-11T00:35:43.744Z,12.90
2018-01-11T00:36:43.735Z,23.40
2018-01-11T00:37:43.721Z,14.80
2018-01-11T00:38:43.709Z,15.40
2018-01-11T00:39:43.701Z,15.00
2018-01-11T00:40:43.690Z,17.10
2018-01-11T00:41:43.681Z,15.60
2018-01-11T00:42:43.677Z,14.40
2018-01-11T00:43:43.660Z,16.70
2018-01-11T00:44:43.656Z,17.20
2018-01-11T00:45:43.652Z,16.70
2018-01-11T00:46:43.628Z,16.10
2018-01-11T00:47:43.620Z,12.20
2018-01-11T00:48:43.615Z,17.20
2018-01-11T00:49:43.601Z,14.90
2018-01-11T00:50:43.590Z,14.00
2018-01-11T00:51:43.579Z,14.20
2018-01-11T00:52:43.570Z,16.30
2018-01-11T00:53:43.561Z,16.20
2018-01-11T00:54:43.548Z,14.80
2018-01-11T00:55:43.541Z,17.50
2018-01-11T00:56:43.530Z,14.20
2018-01-11T00:57:43.517Z,14.50
2018-01-11T00:58:43.508Z,15.10
2018-01-11T00:59:43.506Z,15.60
2018-01-11T01:00:43.493Z,16.70
2018-01-11T01:01:43.480Z,16.20
2018-01-11T01:02:43.467Z,15.00
2018-01-11T01:03:43.456Z,15.30
2018-01-11T01:04:43.449Z,16.40
2018-01-11T01:05:43.439Z,16.00
2018-01-11T01:06:43.446Z,15.80
2018-01-11T01:07:43.412Z,13.40
2018-01-11T01:08:43.407Z,13.10
2018-01-11T01:09:43.403Z,13.70
2018-01-11T01:11:11.019Z,16.10
2018-01-11T01:11:43.378Z,14.60
2018-01-11T01:12:43.367Z,15.00
2018-01-11T01:13:43.354Z,15.40
2018-01-11T01:14:43.346Z,15.10
2018-01-11T01:15:43.341Z,15.90
2018-01-11T01:16:43.322Z,15.70
2018-01-11T01:17:43.318Z,14.00
2018-01-11T01:18:43.306Z,16.30
2018-01-11T01:19:43.295Z,13.40
2018-01-11T01:20:43.288Z,14.10
2018-01-11T01:21:43.277Z,17.90
2018-01-11T01:22:43.265Z,16.40
2018-01-11T01:23:43.253Z,17.30
2018-01-11T01:24:43.244Z,17.40
2018-01-11T01:25:43.260Z,17.60
2018-01-11T01:26:43.226Z,17.10
2018-01-11T01:27:43.214Z,17.40
2018-01-11T01:28:43.208Z,17.80
2018-01-11T01:29:43.194Z,17.50
2018-01-11T01:30:43.182Z,17.90
2018-01-11T01:31:43.173Z,16.00
2018-01-11T01:32:43.164Z,18.10
2018-01-11T01:33:43.155Z,16.40
2018-01-11T01:34:43.145Z,16.20
2018-01-11T01:35:43.133Z,17.40
2018-01-11T01:36:43.120Z,18.60
2018-01-11T01:37:43.118Z,17.90
2018-01-11T01:38:43.102Z,16.60
2018-01-11T01:39:43.093Z,19.10
2018-01-11T01:40:43.088Z,18.30
2018-01-11T01:41:43.074Z,15.90
2018-01-11T01:42:43.058Z,17.60
2018-01-11T01:43:43.055Z,17.50
2018-01-11T01:44:43.043Z,18.60
2018-01-11T01:45:43.032Z,18.10
2018-01-11T01:46:43.060Z,16.90
2018-01-11T01:47:43.010Z,18.20
2018-01-11T01:48:43.004Z,16.80
2018-01-11T01:49:43.001Z,17.20
2018-01-11T01:50:42.992Z,16.80
2018-01-11T01:51:42.975Z,17.90
2018-01-11T01:52:42.960Z,17.50
2018-01-11T01:53:42.950Z,17.70
2018-01-11T01:54:42.941Z,16.80
2018-01-11T01:55:42.930Z,15.90
2018-01-11T01:56:42.917Z,17.50
2018-01-11T01:57:42.912Z,16.20
2018-01-11T01:58:42.900Z,16.60
2018-01-11T01:59:42.891Z,16.80
2018-01-11T02:00:42.884Z,17.90
2018-01-11T02:01:42.872Z,18.90
2018-01-11T02:02:42.869Z,15.40
2018-01-11T02:03:42.850Z,17.80
2018-01-11T02:04:42.839Z,18.30
2018-01-11T02:05:42.826Z,16.60
2018-01-11T02:06:42.817Z,15.90
2018-01-11T02:07:42.818Z,17.70
2018-01-11T02:08:42.803Z,18.90
2018-01-11T02:09:42.784Z,16.60
2018-01-11T02:10:42.777Z,15.50
2018-01-11T02:11:42.772Z,16.80
2018-01-11T02:12:42.755Z,19.20
2018-01-11T02:13:42.747Z,19.80
2018-01-11T02:14:42.736Z,19.00
2018-01-11T02:15:42.726Z,16.80
2018-01-11T02:16:42.718Z,16.60
2018-01-11T02:17:42.713Z,17.50
2018-01-11T02:18:42.695Z,19.30
2018-01-11T02:19:42.685Z,18.00
2018-01-11T02:20:42.675Z,17.60
2018-01-11T02:21:42.682Z,15.10
2018-01-11T02:22:42.655Z,18.70
2018-01-11T02:23:42.645Z,16.30
2018-01-11T02:24:42.633Z,15.70
2018-01-11T02:25:42.625Z,17.20
2018-01-11T02:26:42.613Z,18.70
2018-01-11T02:27:42.598Z,17.70
2018-01-11T02:28:42.624Z,16.70
2018-01-11T02:29:42.580Z,20.80
2018-01-11T02:30:42.589Z,15.60
2018-01-11T02:31:42.567Z,17.60
2018-01-11T02:32:42.552Z,18.60
2018-01-11T02:33:42.544Z,16.70
2018-01-11T02:34:42.531Z,16.50
2018-01-11T02:35:42.518Z,16.20
2018-01-11T02:36:42.511Z,17.40
2018-01-11T02:37:42.497Z,15.30
2018-01-11T02:38:42.491Z,18.90
2018-01-11T02:39:42.483Z,19.20
2018-01-11T02:40:42.469Z,17.50
2018-01-11T02:41:42.462Z,18.20
2018-01-11T02:42:42.448Z,17.90
2018-01-11T02:43:42.439Z,18.00
2018-01-11T02:44:42.426Z,18.30
2018-01-11T02:45:42.418Z,17.40
2018-01-11T02:46:42.407Z,17.20
2018-01-11T02:47:42.397Z,15.70
2018-01-11T02:48:42.388Z,19.50
2018-01-11T02:49:42.374Z,18.40
2018-01-11T02:50:42.368Z,20.30
2018-01-11T02:51:42.359Z,17.90
2018-01-11T02:52:42.347Z,22.20
2018-01-11T02:53:42.336Z,19.20
2018-01-11T02:54:42.329Z,17.70
2018-01-11T02:55:42.318Z,19.30
2018-01-11T02:56:42.318Z,18.10
2018-01-11T02:57:42.294Z,18.60
2018-01-11T02:58:42.284Z,18.50
2018-01-11T02:59:42.275Z,20.10
2018-01-11T03:00:42.265Z,19.20
2018-01-11T03:01:42.255Z,19.60
2018-01-11T03:02:42.248Z,16.70
2018-01-11T03:03:42.232Z,19.20
2018-01-11T03:04:42.221Z,19.60
2018-01-11T03:05:42.214Z,19.80
2018-01-11T03:06:42.204Z,17.80
2018-01-11T03:07:42.194Z,18.40
2018-01-11T03:08:42.181Z,17.60
2018-01-11T03:09:42.170Z,20.40
2018-01-11T03:10:42.161Z,19.00
2018-01-11T03:11:42.146Z,18.40
2018-01-11T03:12:42.143Z,22.00
2018-01-11T03:13:42.132Z,19.10
2018-01-11T03:14:42.128Z,17.30
2018-01-11T03:15:42.109Z,17.20
2018-01-11T03:16:42.147Z,19.30
2018-01-11T03:17:42.084Z,18.80
2018-01-11T03:18:42.076Z,19.70
2018-01-11T03:19:42.069Z,19.30
2018-01-11T03:20:42.057Z,22.70
2018-01-11T03:21:42.056Z,21.30
2018-01-11T03:22:42.038Z,21.30
2018-01-11T03:23:42.031Z,21.70
2018-01-11T03:24:42.038Z,21.50
2018-01-11T03:25:42.003Z,19.90
2018-01-11T03:26:41.997Z,20.60
2018-01-11T03:27:41.986Z,20.90
2018-01-11T03:28:41.979Z,20.90
2018-01-11T03:29:41.966Z,19.60
2018-01-11T03:30:41.955Z,19.70
2018-01-11T03:31:41.943Z,19.60
2018-01-11T03:32:41.931Z,18.50
2018-01-11T03:33:41.925Z,21.60
2018-01-11T03:34:41.914Z,21.40
2018-01-11T03:35:41.907Z,19.00
2018-01-11T03:36:41.893Z,22.40
2018-01-11T03:37:41.883Z,22.30
2018-01-11T03:38:41.871Z,23.00
2018-01-11T03:39:41.863Z,21.10
2018-01-11T03:40:41.854Z,19.50
2018-01-11T03:41:41.847Z,20.60
2018-01-11T03:42:41.830Z,19.50
2018-01-11T03:43:41.819Z,22.10
2018-01-11T03:44:41.817Z,20.80
2018-01-11T03:45:41.799Z,19.20
2018-01-11T03:46:41.790Z,23.50
2018-01-11T03:47:41.783Z,24.00
2018-01-11T03:48:41.769Z,21.40
2018-01-11T03:49:41.760Z,19.70
2018-01-11T03:50:41.750Z,19.90
2018-01-11T03:51:41.743Z,22.50
2018-01-11T03:52:41.726Z,21.70
2018-01-11T03:53:41.721Z,20.70
2018-01-11T03:54:41.710Z,21.40
2018-01-11T03:55:41.700Z,19.80
2018-01-11T03:56:41.691Z,20.50
2018-01-11T03:57:41.679Z,22.00
2018-01-11T03:58:41.669Z,20.80
2018-01-11T03:59:41.703Z,20.90
2018-01-11T04:00:41.646Z,21.00
2018-01-11T04:01:41.685Z,21.80
2018-01-11T04:02:41.639Z,19.10
2018-01-11T04:03:41.676Z,21.00
2018-01-11T04:04:41.606Z,18.40
2018-01-11T04:05:41.601Z,19.70
2018-01-11T04:06:41.585Z,20.60
2018-01-11T04:07:41.578Z,20.20
2018-01-11T04:08:41.568Z,22.60
2018-01-11T04:09:41.560Z,20.20
2018-01-11T04:10:41.546Z,20.00
2018-01-11T04:11:41.536Z,20.20
2018-01-11T04:12:41.527Z,22.50
2018-01-11T04:13:41.514Z,22.80
2018-01-11T04:14:41.509Z,20.10
2018-01-11T04:15:41.495Z,21.70
2018-01-11T04:16:41.494Z,19.70
2018-01-11T04:17:41.477Z,24.40
2018-01-11T04:18:41.470Z,20.70
2018-01-11T04:19:41.456Z,19.80
2018-01-11T04:20:41.446Z,19.40
2018-01-11T04:21:41.471Z,19.00
2018-01-11T04:22:41.430Z,17.20
2018-01-11T04:23:41.416Z,20.50
2018-01-11T04:24:41.405Z,18.80
2018-01-11T04:25:41.396Z,18.50
2018-01-11T04:26:41.381Z,18.50
2018-01-11T04:27:41.372Z,20.30
2018-01-11T04:28:41.365Z,18.80
2018-01-11T04:29:41.355Z,17.90
2018-01-11T04:30:41.344Z,20.80
2018-01-11T04:31:41.335Z,17.60
2018-01-11T04:32:41.334Z,22.00
2018-01-11T04:33:41.337Z,20.10
2018-01-11T04:34:41.305Z,20.20
2018-01-11T04:35:41.299Z,19.30
2018-01-11T04:36:41.285Z,21.80
2018-01-11T04:37:41.271Z,20.70
2018-01-11T04:38:41.264Z,18.50
2018-01-11T04:39:41.256Z,19.80
2018-01-11T04:40:41.244Z,20.60
2018-01-11T04:41:41.243Z,19.70
2018-01-11T04:42:41.223Z,20.40
2018-01-11T04:43:41.213Z,18.90
2018-01-11T04:44:41.206Z,20.90
2018-01-11T04:45:41.190Z,19.70
2018-01-11T04:46:41.183Z,21.80
2018-01-11T04:47:41.168Z,22.40
2018-01-11T04:48:41.161Z,22.00
2018-01-11T04:49:41.151Z,20.70
2018-01-11T04:50:41.152Z,20.30
2018-01-11T04:51:41.142Z,18.90
2018-01-11T04:52:41.127Z,21.90
2018-01-11T04:53:41.135Z,22.20
2018-01-11T04:54:41.100Z,21.20
2018-01-11T04:55:41.089Z,20.30
2018-01-11T04:56:41.081Z,21.50
2018-01-11T04:57:41.077Z,20.90
2018-01-11T04:58:41.060Z,20.50
2018-01-11T04:59:41.044Z,21.30
2018-01-11T05:00:41.042Z,21.70
2018-01-11T05:01:41.028Z,21.10
2018-01-11T05:02:41.021Z,23.10
2018-01-11T05:03:41.018Z,21.30
2018-01-11T05:04:41.001Z,20.40
2018-01-11T05:05:40.989Z,20.90
2018-01-11T05:06:40.982Z,21.40
2018-01-11T05:07:40.982Z,20.30
2018-01-11T05:08:40.961Z,21.80
2018-01-11T05:09:40.950Z,18.30
2018-01-11T05:10:40.938Z,18.00
2018-01-11T05:11:40.928Z,19.60
2018-01-11T05:12:40.921Z,22.20
2018-01-11T05:13:40.908Z,21.60
2018-01-11T05:14:40.900Z,19.60
2018-01-11T05:15:40.890Z,19.80
2018-01-11T05:16:40.877Z,21.20
2018-01-11T05:17:40.866Z,20.00
2018-01-11T05:18:40.865Z,20.40
2018-01-11T05:19:40.850Z,24.00
2018-01-11T05:20:40.842Z,23.30
2018-01-11T05:21:40.826Z,22.80
2018-01-11T05:22:40.815Z,21.70
2018-01-11T05:23:40.808Z,20.50
2018-01-11T05:24:40.817Z,21.30
2018-01-11T05:25:40.790Z,21.80
2018-01-11T05:26:40.784Z,20.70
2018-01-11T05:27:40.784Z,22.40
2018-01-11T05:28:40.754Z,20.40
2018-01-11T05:29:40.750Z,19.50
2018-01-11T05:30:40.737Z,21.80
2018-01-11T05:31:40.728Z,23.80
2018-01-11T05:32:40.717Z,21.70
2018-01-11T05:33:40.707Z,20.90
2018-01-11T05:34:40.702Z,21.80
2018-01-11T05:35:40.693Z,21.30
2018-01-11T05:36:40.678Z,20.60
2018-01-11T05:37:40.666Z,23.80
2018-01-11T05:38:40.654Z,20.00
2018-01-11T05:39:40.646Z,23.10
2018-01-11T05:40:40.636Z,19.20
2018-01-11T05:41:40.629Z,22.60
2018-01-11T05:42:40.608Z,22.20
2018-01-11T05:43:40.604Z,19.80
2018-01-11T05:44:40.595Z,22.20
2018-01-11T05:45:40.586Z,21.00
2018-01-11T05:46:40.602Z,20.80
2018-01-11T05:47:40.565Z,23.70
2018-01-11T05:48:40.554Z,24.80
2018-01-11T05:49:40.554Z,20.10
2018-01-11T05:50:40.532Z,22.30
2018-01-11T05:51:40.525Z,21.80
2018-01-11T05:52:40.517Z,20.30
2018-01-11T05:53:40.506Z,21.70
2018-01-11T05:54:40.492Z,23.70
2018-01-11T05:55:40.485Z,21.60
2018-01-11T05:56:40.472Z,23.30
2018-01-11T05:57:40.465Z,21.50
2018-01-11T05:58:40.487Z,24.40
2018-01-11T05:59:40.443Z,24.00
2018-01-11T06:00:40.435Z,20.90
2018-01-11T06:01:40.427Z,21.60
2018-01-11T06:02:40.410Z,21.70
2018-01-11T06:03:40.404Z,22.10
2018-01-11T06:04:40.394Z,20.90
2018-01-11T06:05:40.382Z,21.90
2018-01-11T06:06:40.372Z,22.50
2018-01-11T06:07:40.363Z,21.90
2018-01-11T06:08:40.353Z,21.60
2018-01-11T06:09:40.339Z,21.50
2018-01-11T06:10:40.333Z,21.60
2018-01-11T06:11:40.324Z,20.50
2018-01-11T06:12:40.311Z,22.80
2018-01-11T06:13:40.303Z,20.00
2018-01-11T06:14:40.294Z,21.90
2018-01-11T06:15:40.287Z,21.80
2018-01-11T06:16:40.268Z,21.50
2018-01-11T06:17:40.262Z,20.50
2018-01-11T06:18:40.258Z,20.50
2018-01-11T06:19:40.242Z,24.30
2018-01-11T06:20:40.232Z,23.90
2018-01-11T06:21:40.224Z,22.60
2018-01-11T06:22:40.214Z,20.50
2018-01-11T06:23:40.199Z,19.10
2018-01-11T06:24:40.199Z,22.10
2018-01-11T06:25:40.193Z,21.20
2018-01-11T06:26:40.171Z,22.30
2018-01-11T06:27:40.164Z,22.70
2018-01-11T06:28:40.151Z,20.60
2018-01-11T06:29:40.143Z,21.80
2018-01-11T06:30:40.131Z,22.40
2018-01-11T06:31:40.122Z,23.80
2018-01-11T06:32:40.117Z,23.00
2018-01-11T06:33:40.101Z,27.70
2018-01-11T06:34:40.087Z,24.20
2018-01-11T06:35:40.079Z,22.70
2018-01-11T06:36:40.076Z,22.50
2018-01-11T06:37:40.058Z,23.40
2018-01-11T06:38:40.053Z,22.90
2018-01-11T06:39:40.040Z,24.20
2018-01-11T06:40:40.069Z,24.30
2018-01-11T06:41:40.020Z,21.50
2018-01-11T06:42:40.013Z,23.00
2018-01-11T06:43:39.999Z,22.70
2018-01-11T06:44:39.997Z,22.30
2018-01-11T06:45:39.986Z,21.50
2018-01-11T06:46:39.969Z,24.00
2018-01-11T06:47:39.966Z,20.80
2018-01-11T06:48:39.951Z,25.00
2018-01-11T06:49:39.941Z,24.40
2018-01-11T06:50:39.930Z,22.10
2018-01-11T06:51:39.918Z,22.60
2018-01-11T06:52:39.913Z,22.40
2018-01-11T06:53:39.903Z,22.10
2018-01-11T06:54:39.889Z,21.50
2018-01-11T06:55:39.881Z,24.60
2018-01-11T06:56:39.870Z,24.00
2018-01-11T06:57:39.855Z,26.10
2018-01-11T06:58:39.856Z,24.00
2018-01-11T06:59:39.896Z,24.10
2018-01-11T07:00:39.831Z,21.10
2018-01-11T07:01:39.819Z,23.50
2018-01-11T07:02:39.810Z,22.70
2018-01-11T07:03:39.793Z,23.10
2018-01-11T07:04:39.790Z,21.70
2018-01-11T07:05:39.784Z,24.10
2018-01-11T07:06:39.770Z,25.50
2018-01-11T07:07:39.767Z,22.80
2018-01-11T07:08:39.750Z,25.40
2018-01-11T07:09:39.829Z,22.80
2018-01-11T07:10:39.730Z,22.90
2018-01-11T07:11:39.721Z,22.70
2018-01-11T07:12:39.710Z,22.20
2018-01-11T07:13:39.708Z,26.10
2018-01-11T07:14:39.692Z,25.50
2018-01-11T07:15:39.681Z,24.20
2018-01-11T07:16:39.668Z,23.30
2018-01-11T07:17:39.656Z,23.00
2018-01-11T07:18:39.649Z,23.30
2018-01-11T07:19:39.647Z,26.00
2018-01-11T07:20:39.642Z,24.40
2018-01-11T07:21:39.632Z,25.30
2018-01-11T07:22:39.607Z,23.40
2018-01-11T07:23:39.602Z,26.60
2018-01-11T07:24:39.589Z,25.20
2018-01-11T07:25:39.593Z,23.90
2018-01-11T07:26:39.573Z,25.10
2018-01-11T07:27:39.562Z,27.30
2018-01-11T07:28:39.548Z,22.80
2018-01-11T07:29:39.551Z,25.70
2018-01-11T07:30:39.536Z,21.90
2018-01-11T07:31:39.543Z,22.10
2018-01-11T07:32:39.506Z,21.70
2018-01-11T07:33:39.498Z,24.00
2018-01-11T07:34:39.486Z,26.40
2018-01-11T07:35:39.488Z,25.70
2018-01-11T07:36:39.479Z,25.00
2018-01-11T07:37:39.471Z,23.60
2018-01-11T07:38:39.453Z,24.30
2018-01-11T07:39:39.443Z,24.70
2018-01-11T07:40:39.425Z,23.60
2018-01-11T07:41:39.476Z,24.10
2018-01-11T07:42:39.435Z,23.60
2018-01-11T07:43:39.404Z,25.80
2018-01-11T07:44:39.386Z,25.10
2018-01-11T07:45:39.382Z,26.50
2018-01-11T07:46:39.373Z,24.00
2018-01-11T07:47:39.380Z,24.30
2018-01-11T07:48:39.388Z,26.00
2018-01-11T07:49:39.346Z,27.20
2018-01-11T07:50:39.338Z,24.30
2018-01-11T07:51:39.328Z,25.50
2018-01-11T07:52:39.314Z,24.90
2018-01-11T07:53:39.301Z,23.90
2018-01-11T07:54:39.291Z,28.20
2018-01-11T07:55:39.284Z,26.50
2018-01-11T07:56:39.276Z,26.30
2018-01-11T07:57:39.260Z,24.10
2018-01-11T07:58:39.253Z,21.70
2018-01-11T07:59:39.248Z,24.10
2018-01-11T08:00:39.231Z,24.90
2018-01-11T08:01:39.226Z,26.20
2018-01-11T08:02:39.214Z,23.20
2018-01-11T08:03:39.204Z,27.40
2018-01-11T08:04:39.194Z,25.60
2018-01-11T08:05:39.189Z,25.50
2018-01-11T08:06:39.168Z,25.30
2018-01-11T08:07:39.169Z,26.30
2018-01-11T08:08:39.152Z,25.20
2018-01-11T08:09:39.144Z,23.50
2018-01-11T08:10:39.134Z,24.70
2018-01-11T08:11:39.119Z,27.80
2018-01-11T08:12:39.115Z,27.90
2018-01-11T08:13:39.105Z,32.20
2018-01-11T08:14:40.080Z,27.00
2018-01-11T08:15:39.088Z,28.00
2018-01-11T08:16:39.075Z,25.60
2018-01-11T08:17:39.062Z,25.60
2018-01-11T08:18:39.057Z,27.00
2018-01-11T08:19:39.043Z,24.60
2018-01-11T08:20:39.035Z,25.70
2018-01-11T08:21:39.042Z,27.50
2018-01-11T08:22:39.014Z,27.20
2018-01-11T08:23:39.005Z,27.40
2018-01-11T08:24:38.996Z,24.00
2018-01-11T08:25:38.985Z,24.20
2018-01-11T08:26:38.974Z,28.50
2018-01-11T08:27:38.969Z,29.00
2018-01-11T08:28:38.957Z,26.40
2018-01-11T08:29:38.954Z,24.50
2018-01-11T08:30:38.936Z,23.20
2018-01-11T08:31:38.930Z,27.30
2018-01-11T08:32:38.922Z,25.30
2018-01-11T08:33:38.909Z,24.20
2018-01-11T08:34:38.900Z,26.20
2018-01-11T08:35:38.891Z,26.80
2018-01-11T08:36:38.877Z,42.30
2018-01-11T08:37:38.874Z,44.40
2018-01-11T08:38:38.863Z,39.00
2018-01-11T08:39:38.851Z,31.00
2018-01-11T08:40:38.843Z,28.60
2018-01-11T08:41:38.835Z,27.70
2018-01-11T08:42:38.824Z,24.40
2018-01-11T08:43:38.815Z,23.90
2018-01-11T08:44:38.803Z,25.80
2018-01-11T08:45:38.797Z,22.90
2018-01-11T08:46:38.788Z,24.10
2018-01-11T08:47:38.774Z,21.50
2018-01-11T08:48:38.765Z,22.60
2018-01-11T08:49:38.759Z,23.10
2018-01-11T08:50:38.754Z,21.00
2018-01-11T08:51:38.746Z,21.90
2018-01-11T08:52:38.729Z,23.00
2018-01-11T08:53:38.737Z,21.30
2018-01-11T08:54:38.712Z,22.40
2018-01-11T08:55:38.710Z,21.20
2018-01-11T08:56:38.699Z,20.30
2018-01-11T08:57:38.690Z,21.00
2018-01-11T08:58:38.678Z,22.10
2018-01-11T08:59:38.673Z,21.40
2018-01-11T09:00:38.660Z,23.10
2018-01-11T09:01:38.651Z,21.80
2018-01-11T09:02:38.670Z,24.20
2018-01-11T09:03:38.635Z,25.20
2018-01-11T09:04:38.636Z,25.50
2018-01-11T09:05:38.620Z,23.40
2018-01-11T09:06:38.612Z,21.30
2018-01-11T09:07:38.597Z,23.90
2018-01-11T09:08:38.594Z,25.30
2018-01-11T09:09:38.583Z,22.30
2018-01-11T09:10:38.572Z,23.30
2018-01-11T09:11:38.564Z,24.00
2018-01-11T09:12:38.557Z,24.50
2018-01-11T09:13:38.552Z,22.60
2018-01-11T09:14:38.536Z,27.60
2018-01-11T09:15:38.531Z,25.90
2018-01-11T09:16:38.532Z,20.50
2018-01-11T09:17:38.514Z,24.70
2018-01-11T09:18:38.512Z,23.10
2018-01-11T09:19:38.496Z,23.90
2018-01-11T09:20:38.483Z,25.40
2018-01-11T09:21:38.474Z,21.20
2018-01-11T09:22:38.465Z,23.10
2018-01-11T09:23:38.459Z,23.70
2018-01-11T09:24:38.450Z,26.10
2018-01-11T09:25:38.441Z,22.20
2018-01-11T09:26:38.434Z,25.30
2018-01-11T09:27:38.426Z,23.30
2018-01-11T09:28:38.413Z,27.00
2018-01-11T09:29:38.406Z,24.20
2018-01-11T09:30:38.391Z,24.50
2018-01-11T09:31:38.400Z,24.40
2018-01-11T09:32:38.379Z,22.50
2018-01-11T09:33:38.371Z,24.80
2018-01-11T09:34:38.363Z,26.80
2018-01-11T09:35:38.349Z,26.60
2018-01-11T09:36:38.342Z,22.90
2018-01-11T09:37:38.336Z,25.90
2018-01-11T09:38:38.373Z,24.60
2018-01-11T09:39:38.319Z,23.30
2018-01-11T09:40:38.310Z,22.70
2018-01-11T09:41:38.303Z,24.40
2018-01-11T09:42:38.289Z,23.40
2018-01-11T09:43:38.283Z,22.90
2018-01-11T09:44:38.288Z,22.10
2018-01-11T09:45:38.270Z,25.60
2018-01-11T09:46:38.259Z,24.20
2018-01-11T09:47:38.250Z,22.70
2018-01-11T09:48:38.250Z,21.80
2018-01-11T09:49:38.233Z,21.80
2018-01-11T09:50:38.227Z,20.40
2018-01-11T09:51:38.222Z,18.50
2018-01-11T09:52:38.216Z,21.70
2018-01-11T09:53:38.217Z,19.80
2018-01-11T09:54:38.202Z,21.10
2018-01-11T09:55:38.197Z,21.80
2018-01-11T09:56:38.181Z,21.40
2018-01-11T09:57:38.177Z,19.90
2018-01-11T09:58:38.171Z,18.80
2018-01-11T09:59:38.163Z,20.40
2018-01-11T10:00:38.160Z,19.80
2018-01-11T10:01:38.175Z,19.00
2018-01-11T10:02:38.172Z,19.60
2018-01-11T10:03:38.143Z,19.50
2018-01-11T10:04:38.134Z,18.90
2018-01-11T10:05:38.134Z,19.20
2018-01-11T10:06:38.131Z,19.20
2018-01-11T10:07:38.125Z,20.40
2018-01-11T10:08:38.122Z,20.10
2018-01-11T10:09:38.117Z,17.90
2018-01-11T10:10:38.129Z,19.60
2018-01-11T10:11:38.175Z,17.70
2018-01-11T10:12:38.106Z,17.90
2018-01-11T10:13:38.280Z,17.50
2018-01-11T10:14:38.099Z,17.90
2018-01-11T10:15:38.097Z,15.90
2018-01-11T10:16:38.098Z,16.20
2018-01-11T10:17:38.091Z,18.40
2018-01-11T10:18:38.091Z,18.90
2018-01-11T10:19:38.103Z,17.10
2018-01-11T10:20:38.090Z,18.40
2018-01-11T10:21:38.109Z,18.70
2018-01-11T10:22:38.079Z,20.00
2018-01-11T10:23:38.072Z,17.80
2018-01-11T10:24:38.074Z,19.00
2018-01-11T10:25:38.068Z,17.70
2018-01-11T10:26:38.065Z,17.10
2018-01-11T10:27:38.064Z,17.40
2018-01-11T10:28:38.062Z,18.10
2018-01-11T10:29:38.056Z,18.40
2018-01-11T10:30:38.050Z,18.30
2018-01-11T10:31:38.061Z,20.40
2018-01-11T10:32:38.046Z,18.50
2018-01-11T10:33:38.039Z,18.90
2018-01-11T10:34:38.035Z,19.90
2018-01-11T10:35:38.036Z,18.90
2018-01-11T10:36:38.029Z,21.00
2018-01-11T10:37:38.018Z,18.40
2018-01-11T10:38:38.035Z,21.80
2018-01-11T10:39:38.011Z,19.30
2018-01-11T10:40:38.008Z,19.30
2018-01-11T10:41:38.000Z,20.10
2018-01-11T10:42:37.997Z,19.70
2018-01-11T10:43:37.992Z,19.20
2018-01-11T10:44:37.985Z,20.70
2018-01-11T10:45:37.983Z,21.10
2018-01-11T10:46:37.976Z,20.30
2018-01-11T10:47:37.970Z,19.60
2018-01-11T10:48:37.968Z,19.80
2018-01-11T10:49:37.966Z,18.00
2018-01-11T10:50:37.956Z,21.00
2018-01-11T10:51:37.948Z,19.70
2018-01-11T10:52:37.938Z,21.10
2018-01-11T10:53:37.942Z,18.70
2018-01-11T10:54:37.934Z,20.60
2018-01-11T10:55:37.923Z,20.90
2018-01-11T10:56:37.921Z,19.90
2018-01-11T10:57:37.912Z,21.20
2018-01-11T10:58:37.908Z,20.20
2018-01-11T10:59:37.902Z,22.10
2018-01-11T11:00:37.895Z,20.70
2018-01-11T11:01:37.891Z,18.90
2018-01-11T11:02:37.946Z,19.90
2018-01-11T11:03:37.878Z,20.90
2018-01-11T11:04:37.869Z,22.70
2018-01-11T11:05:37.868Z,21.50
2018-01-11T11:06:37.861Z,20.30
2018-01-11T11:07:37.853Z,21.40
2018-01-11T11:08:37.852Z,19.70
2018-01-11T11:09:37.842Z,23.00
2018-01-11T11:10:37.828Z,21.00
2018-01-11T11:11:37.832Z,20.20
2018-01-11T11:12:37.823Z,19.80
2018-01-11T11:13:37.819Z,20.40
2018-01-11T11:14:37.809Z,20.00
2018-01-11T11:15:37.802Z,19.80
2018-01-11T11:16:37.792Z,19.50
2018-01-11T11:17:37.790Z,20.40
2018-01-11T11:18:37.782Z,21.10
2018-01-11T11:19:37.777Z,20.40
2018-01-11T11:20:37.784Z,21.40
2018-01-11T11:21:37.770Z,20.50
2018-01-11T11:22:37.762Z,21.30
2018-01-11T11:23:37.747Z,19.50
2018-01-11T11:24:37.745Z,21.20
2018-01-11T11:25:37.756Z,20.20
2018-01-11T11:26:37.728Z,21.70
2018-01-11T11:27:37.745Z,18.90
2018-01-11T11:28:37.719Z,23.30
2018-01-11T11:29:37.807Z,20.90
2018-01-11T11:30:37.704Z,21.70
2018-01-11T11:31:37.729Z,19.40
2018-01-11T11:32:37.714Z,21.40
2018-01-11T11:33:37.688Z,18.70
2018-01-11T11:34:37.676Z,19.10
2018-01-11T11:35:37.674Z,19.90
2018-01-11T11:36:37.667Z,18.60
2018-01-11T11:37:37.664Z,19.70
2018-01-11T11:38:37.653Z,19.30
2018-01-11T11:39:37.649Z,20.80
2018-01-11T11:40:37.642Z,20.40
2018-01-11T11:41:37.644Z,21.20
2018-01-11T11:42:37.631Z,19.00
2018-01-11T11:43:37.620Z,20.00
2018-01-11T11:44:37.625Z,19.20
2018-01-11T11:45:37.615Z,20.30
2018-01-11T11:46:37.608Z,21.70
2018-01-11T11:47:37.594Z,20.30
2018-01-11T11:48:37.591Z,19.80
2018-01-11T11:49:37.581Z,19.30
2018-01-11T11:50:37.576Z,19.90
2018-01-11T11:51:37.646Z,19.90
2018-01-11T11:52:37.565Z,20.50
2018-01-11T11:53:37.554Z,19.20
2018-01-11T11:54:37.553Z,19.50
2018-01-11T11:55:37.581Z,20.40
2018-01-11T11:56:37.537Z,20.90
2018-01-11T11:57:37.531Z,22.10
2018-01-11T11:58:37.521Z,19.70
2018-01-11T11:59:37.515Z,20.90
2018-01-11T12:00:37.510Z,22.00
2018-01-11T12:01:37.503Z,19.60
2018-01-11T12:02:37.502Z,22.00
2018-01-11T12:03:37.488Z,19.40
2018-01-11T12:04:37.481Z,23.60
2018-01-11T12:05:37.476Z,23.20
2018-01-11T12:06:37.469Z,22.30
2018-01-11T12:07:37.460Z,19.80
2018-01-11T12:08:37.467Z,21.00
2018-01-11T12:09:37.445Z,19.90
2018-01-11T12:10:37.445Z,21.70
2018-01-11T12:11:37.432Z,19.90
2018-01-11T12:12:37.426Z,20.00
2018-01-11T12:13:37.422Z,20.20
2018-01-11T12:14:37.413Z,21.60
2018-01-11T12:15:37.412Z,19.70
2018-01-11T12:16:37.432Z,19.70
2018-01-11T12:17:37.398Z,19.50
2018-01-11T12:18:37.390Z,20.20
2018-01-11T12:19:37.375Z,19.00
2018-01-11T12:20:37.383Z,22.00
2018-01-11T12:21:37.393Z,19.70
2018-01-11T12:22:37.353Z,20.50
2018-01-11T12:23:37.352Z,21.00
2018-01-11T12:24:37.396Z,20.60
2018-01-11T12:25:37.410Z,20.40
2018-01-11T12:26:37.329Z,21.00
2018-01-11T12:27:37.334Z,20.30
2018-01-11T12:28:37.312Z,21.00
2018-01-11T12:29:37.305Z,20.00
2018-01-11T12:30:37.300Z,26.20
2018-01-11T12:31:37.307Z,21.20
2018-01-11T12:32:37.287Z,20.70
2018-01-11T12:33:37.279Z,20.60
2018-01-11T12:34:37.273Z,20.00
2018-01-11T12:35:37.267Z,21.50
2018-01-11T12:36:37.257Z,20.80
2018-01-11T12:37:37.286Z,20.80
2018-01-11T12:38:37.245Z,20.10
2018-01-11T12:39:37.236Z,20.50
2018-01-11T12:40:37.233Z,20.60
2018-01-11T12:41:37.226Z,21.50
2018-01-11T12:42:37.219Z,19.70
2018-01-11T12:43:37.208Z,20.60
2018-01-11T12:44:37.206Z,20.30
2018-01-11T12:45:37.195Z,20.20
2018-01-11T12:46:37.192Z,20.20
2018-01-11T12:47:37.250Z,21.60
2018-01-11T12:48:37.174Z,22.00
2018-01-11T12:49:37.180Z,20.40
2018-01-11T12:50:37.165Z,20.30
2018-01-11T12:51:37.154Z,20.00
2018-01-11T12:52:37.148Z,19.60